createdAt,value
2019-02-20T00:02:09.535Z,94.80
2019-02-20T00:04:38.123Z,94.90
2019-02-20T00:07:06.742Z,94.90
2019-02-20T00:09:35.363Z,94.90
2019-02-20T00:12:03.985Z,94.90
2019-02-20T00:14:32.590Z,95.30
2019-02-20T00:17:01.204Z,95.00
2019-02-20T00:19:29.784Z,95.10
2019-02-20T00:21:58.380Z,95.00
2019-02-20T00:24:26.978Z,95.10
2019-02-20T00:26:55.561Z,95.00
2019-02-20T00:29:24.161Z,95.10
2019-02-20T00:31:52.784Z,95.00
2019-02-20T00:34:21.393Z,95.00
2019-02-20T00:36:50.037Z,95.00
2019-02-20T00:39:18.605Z,94.90
2019-02-20T00:41:47.191Z,95.00
2019-02-20T00:44:37.784Z,94.90
2019-02-20T00:47:25.536Z,95.00
2019-02-20T00:49:54.510Z,94.90
2019-02-20T00:52:29.749Z,95.00
2019-02-20T00:54:58.366Z,95.00
2019-02-20T00:57:26.969Z,95.00
2019-02-20T00:59:55.578Z,95.00
2019-02-20T01:02:24.177Z,95.10
2019-02-20T01:04:52.767Z,95.10
2019-02-20T01:07:21.362Z,95.20
2019-02-20T01:09:49.977Z,95.20
2019-02-20T01:12:18.574Z,95.10
2019-02-20T01:14:47.155Z,95.10
2019-02-20T01:17:16.216Z,95.10
2019-02-20T01:19:44.817Z,95.00
2019-02-20T01:22:15.423Z,95.00
2019-02-20T01:24:44.421Z,95.00
2019-02-20T01:27:13.053Z,95.00
2019-02-20T01:29:41.680Z,95.00
2019-02-20T01:32:10.292Z,94.90
2019-02-20T01:34:38.872Z,94.90
2019-02-20T01:37:07.451Z,94.80
2019-02-20T01:39:36.079Z,94.80
2019-02-20T01:42:05.072Z,94.80
2019-02-20T01:44:33.682Z,94.80
2019-02-20T01:47:02.329Z,94.70
2019-02-20T01:49:30.923Z,94.70
2019-02-20T01:51:59.528Z,94.60
2019-02-20T01:54:28.116Z,94.70
2019-02-20T01:56:57.285Z,94.60
2019-02-20T01:59:26.001Z,94.60
2019-02-20T02:01:54.602Z,94.50
2019-02-20T02:04:23.214Z,94.50
2019-02-20T02:06:51.855Z,94.50
2019-02-20T02:09:20.446Z,94.70
2019-02-20T02:11:49.028Z,94.80
2019-02-20T02:14:17.613Z,94.90
2019-02-20T02:16:46.191Z,94.90
2019-02-20T02:19:14.809Z,94.90
2019-02-20T02:21:43.457Z,95.00
2019-02-20T02:24:12.055Z,95.00
2019-02-20T02:26:40.688Z,95.00
2019-02-20T02:29:09.284Z,95.10
2019-02-20T02:31:37.896Z,95.10
2019-02-20T02:34:06.487Z,95.10
2019-02-20T02:36:35.084Z,95.10
2019-02-20T02:39:05.935Z,95.20
2019-02-20T02:41:36.605Z,95.20
2019-02-20T02:44:05.208Z,95.20
2019-02-20T02:46:33.796Z,95.10
2019-02-20T02:49:05.584Z,95.20
2019-02-20T02:51:34.184Z,95.20
2019-02-20T02:54:02.934Z,95.20
2019-02-20T02:56:31.561Z,95.30
2019-02-20T02:59:00.132Z,95.30
2019-02-20T03:01:28.737Z,95.20
2019-02-20T03:03:57.449Z,95.20
2019-02-20T03:06:26.084Z,95.10
2019-02-20T03:08:54.692Z,94.90
2019-02-20T03:11:23.280Z,95.10
2019-02-20T03:13:51.892Z,95.10
2019-02-20T03:16:20.509Z,95.10
2019-02-20T03:18:49.110Z,95.00
2019-02-20T03:21:17.721Z,94.80
2019-02-20T03:23:46.418Z,94.70
2019-02-20T03:26:15.100Z,94.70
2019-02-20T03:28:43.727Z,94.80
2019-02-20T03:31:12.319Z,94.90
2019-02-20T03:33:40.934Z,94.90
2019-02-20T03:36:09.598Z,94.90
2019-02-20T03:38:38.181Z,94.90
2019-02-20T03:41:06.803Z,94.80
2019-02-20T03:43:35.430Z,94.80
2019-02-20T03:46:06.522Z,94.90
2019-02-20T03:48:35.100Z,95.00
2019-02-20T03:51:03.764Z,95.00
2019-02-20T03:53:32.384Z,95.20
2019-02-20T03:56:01.622Z,95.20
2019-02-20T03:58:30.200Z,95.20
2019-02-20T04:00:58.813Z,95.10
2019-02-20T04:03:27.724Z,95.10
2019-02-20T04:05:56.301Z,95.00
2019-02-20T04:08:24.913Z,95.10
2019-02-20T04:10:53.523Z,95.00
2019-02-20T04:13:22.115Z,95.10
2019-02-20T04:15:50.748Z,95.20
2019-02-20T04:18:19.330Z,95.20
2019-02-20T04:20:48.009Z,95.20
2019-02-20T04:23:16.599Z,95.20
2019-02-20T04:25:45.214Z,95.20
2019-02-20T04:28:13.793Z,95.10
2019-02-20T04:30:42.421Z,95.10
2019-02-20T04:33:11.030Z,95.10
2019-02-20T04:35:39.613Z,95.10
2019-02-20T04:38:08.223Z,95.10
2019-02-20T04:40:36.793Z,95.10
2019-02-20T04:43:05.377Z,95.00
2019-02-20T04:45:34.000Z,94.90
2019-02-20T04:48:03.668Z,95.00
2019-02-20T04:50:32.283Z,95.00
2019-02-20T04:53:00.922Z,95.00
2019-02-20T04:55:29.572Z,95.20
2019-02-20T04:58:20.617Z,95.30
2019-02-20T05:00:49.233Z,95.30
2019-02-20T05:03:17.837Z,95.20
2019-02-20T05:05:46.453Z,95.10
2019-02-20T05:08:16.532Z,95.20
2019-02-20T05:10:48.125Z,95.20
2019-02-20T05:13:16.822Z,95.30
2019-02-20T05:15:45.425Z,95.20
2019-02-20T05:18:15.197Z,95.50
2019-02-20T05:20:43.801Z,95.00
2019-02-20T05:23:12.385Z,94.90
2019-02-20T05:25:41.094Z,94.80
2019-02-20T05:28:09.743Z,94.90
2019-02-20T05:30:38.351Z,94.90
2019-02-20T05:33:06.989Z,94.80
2019-02-20T05:35:35.562Z,94.80
2019-02-20T05:38:04.203Z,94.70
2019-02-20T05:40:32.788Z,94.70
2019-02-20T05:43:01.541Z,95.00
2019-02-20T05:45:30.115Z,94.70
2019-02-20T05:47:58.732Z,94.60
2019-02-20T05:50:27.376Z,94.60
2019-02-20T05:52:56.001Z,94.60
2019-02-20T05:55:24.769Z,94.60
2019-02-20T05:57:53.351Z,94.60
2019-02-20T06:00:22.069Z,94.50
2019-02-20T06:02:50.656Z,94.50
2019-02-20T06:05:19.493Z,94.40
2019-02-20T06:07:48.068Z,94.40
2019-02-20T06:10:19.433Z,94.50
2019-02-20T06:12:48.071Z,94.40
2019-02-20T06:15:18.223Z,94.40
2019-02-20T06:17:47.165Z,94.30
2019-02-20T06:20:15.787Z,94.30
2019-02-20T06:22:44.373Z,94.30
2019-02-20T06:25:13.090Z,94.20
2019-02-20T06:27:41.695Z,94.30
2019-02-20T06:30:10.414Z,94.30
2019-02-20T06:32:39.049Z,94.30
2019-02-20T06:35:07.621Z,94.30
2019-02-20T06:37:36.196Z,94.30
2019-02-20T06:40:04.843Z,94.30
2019-02-20T06:42:33.445Z,94.20
2019-02-20T06:45:02.136Z,94.10
2019-02-20T06:47:30.736Z,94.10
2019-02-20T06:50:01.047Z,94.20
2019-02-20T06:52:29.627Z,94.10
2019-02-20T06:54:58.217Z,94.20
2019-02-20T06:57:26.805Z,94.20
2019-02-20T06:59:55.431Z,94.30
2019-02-20T07:02:24.431Z,94.30
2019-02-20T07:05:45.973Z,94.30
2019-02-20T07:08:52.173Z,94.30
2019-02-20T07:11:46.611Z,94.40
2019-02-20T07:15:00.537Z,94.30
2019-02-20T07:18:12.668Z,94.30
2019-02-20T07:21:11.206Z,94.50
2019-02-20T07:24:18.034Z,94.30
2019-02-20T07:27:30.512Z,94.40
2019-02-20T07:30:05.190Z,94.30
2019-02-20T07:32:33.956Z,94.30
2019-02-20T07:35:02.677Z,94.40
2019-02-20T07:37:31.308Z,94.40
2019-02-20T07:39:59.930Z,94.40
2019-02-20T07:42:28.556Z,94.30
2019-02-20T07:44:57.155Z,94.20
2019-02-20T07:47:25.780Z,94.20
2019-02-20T07:49:54.506Z,94.20
2019-02-20T07:52:23.120Z,94.20
2019-02-20T07:54:52.125Z,94.10
2019-02-20T07:57:40.136Z,94.10
2019-02-20T08:00:10.563Z,93.90
2019-02-20T08:02:39.479Z,93.80
2019-02-20T08:05:08.117Z,93.80
2019-02-20T08:07:36.860Z,93.70
2019-02-20T08:10:06.873Z,93.70
2019-02-20T08:12:35.514Z,93.90
2019-02-20T08:15:04.200Z,93.60
2019-02-20T08:17:52.197Z,93.40
2019-02-20T08:20:21.087Z,93.40
2019-02-20T08:22:49.676Z,93.40
2019-02-20T08:25:22.789Z,93.30
2019-02-20T08:27:48.902Z,93.10
2019-02-20T08:30:17.618Z,93.10
2019-02-20T08:32:46.191Z,92.90
2019-02-20T08:35:15.085Z,92.80
2019-02-20T08:37:43.791Z,92.90
2019-02-20T08:40:14.197Z,92.80
2019-02-20T08:42:45.037Z,92.80
2019-02-20T08:45:13.741Z,92.80
2019-02-20T08:47:42.369Z,92.80
2019-02-20T08:50:11.411Z,92.70
2019-02-20T08:52:41.245Z,92.70
2019-02-20T08:55:09.897Z,92.50
2019-02-20T08:57:38.569Z,92.50
2019-02-20T09:00:09.628Z,92.40
2019-02-20T09:02:40.062Z,92.20
2019-02-20T09:05:08.762Z,92.20
2019-02-20T09:07:37.466Z,92.40
2019-02-20T09:10:06.648Z,92.50
2019-02-20T09:12:35.248Z,92.30
2019-02-20T09:15:16.880Z,92.30
2019-02-20T09:17:45.463Z,92.00
2019-02-20T09:20:14.085Z,92.20
2019-02-20T09:22:42.836Z,92.40
2019-02-20T09:25:19.537Z,92.10
2019-02-20T09:27:42.155Z,91.90
2019-02-20T09:30:12.349Z,91.90
2019-02-20T09:32:40.963Z,92.00
2019-02-20T09:35:09.601Z,91.50
2019-02-20T09:37:38.312Z,91.40
2019-02-20T09:40:09.173Z,91.30
2019-02-20T09:42:39.584Z,91.00
2019-02-20T09:45:08.311Z,91.20
2019-02-20T09:47:37.340Z,90.90
2019-02-20T09:50:05.969Z,90.80
2019-02-20T09:52:34.539Z,90.70
2019-02-20T09:55:22.481Z,90.90
2019-02-20T09:57:54.133Z,90.00
2019-02-20T10:00:23.070Z,90.30
2019-02-20T10:02:51.690Z,90.10
2019-02-20T10:05:20.268Z,90.00
2019-02-20T10:07:48.904Z,88.50
2019-02-20T10:10:17.556Z,87.80
2019-02-20T10:12:46.197Z,87.40
2019-02-20T10:15:14.976Z,88.70
2019-02-20T10:17:43.647Z,86.90
2019-02-20T10:20:12.243Z,86.10
2019-02-20T10:23:00.169Z,86.90
2019-02-20T10:25:28.780Z,86.10
2019-02-20T10:27:57.425Z,86.30
2019-02-20T10:30:26.012Z,86.00
2019-02-20T10:32:54.621Z,85.50
2019-02-20T10:35:28.971Z,83.80
2019-02-20T10:37:57.556Z,84.40
2019-02-20T10:40:26.511Z,84.40
2019-02-20T10:42:55.231Z,84.50
2019-02-20T10:45:23.831Z,84.40
2019-02-20T10:47:52.423Z,84.10
2019-02-20T10:50:21.073Z,84.00
2019-02-20T10:52:49.684Z,84.50
2019-02-20T10:55:18.412Z,84.90
2019-02-20T10:57:47.060Z,84.40
2019-02-20T11:00:23.970Z,84.10
2019-02-20T11:02:50.913Z,84.60
2019-02-20T11:05:19.639Z,85.50
2019-02-20T11:07:48.256Z,84.60
2019-02-20T11:10:17.012Z,84.30
2019-02-20T11:12:45.617Z,83.20
2019-02-20T11:15:14.293Z,83.80
2019-02-20T11:17:43.008Z,83.90
2019-02-20T11:20:13.694Z,83.60
2019-02-20T11:22:42.551Z,83.80
2019-02-20T11:25:11.542Z,83.00
2019-02-20T11:27:40.149Z,83.20
2019-02-20T11:30:11.739Z,83.60
2019-02-20T11:32:40.398Z,83.60
2019-02-20T11:35:09.040Z,84.30
2019-02-20T11:37:37.693Z,83.60
2019-02-20T11:40:07.124Z,83.70
2019-02-20T11:42:35.761Z,84.10
2019-02-20T11:45:04.553Z,83.50
2019-02-20T11:47:33.665Z,83.40
2019-02-20T11:50:03.683Z,82.40
2019-02-20T11:52:38.112Z,82.90
2019-02-20T11:55:05.510Z,82.70
2019-02-20T11:58:02.222Z,83.30
2019-02-20T12:00:50.209Z,84.50
2019-02-20T12:03:18.836Z,83.50
2019-02-20T12:05:47.449Z,83.20
2019-02-20T12:08:17.135Z,82.70
2019-02-20T12:10:47.368Z,83.00
2019-02-20T12:13:16.047Z,83.60
2019-02-20T12:15:44.668Z,82.80
2019-02-20T12:18:17.353Z,82.30
2019-02-20T12:20:43.951Z,82.10
2019-02-20T12:23:12.543Z,83.00
2019-02-20T12:25:41.163Z,83.50
2019-02-20T12:28:09.735Z,82.70
2019-02-20T12:30:38.347Z,82.20
2019-02-20T12:33:07.017Z,82.00
2019-02-20T12:35:35.624Z,82.30
2019-02-20T12:38:04.205Z,82.60
2019-02-20T12:40:32.824Z,81.80
2019-02-20T12:43:01.583Z,81.10
2019-02-20T12:45:31.285Z,82.00
2019-02-20T12:47:59.986Z,80.60
2019-02-20T12:50:28.593Z,80.30
2019-02-20T12:52:57.192Z,80.20
2019-02-20T12:55:25.845Z,80.60
2019-02-20T12:57:54.441Z,80.40
2019-02-20T13:00:23.227Z,79.20
2019-02-20T13:02:52.096Z,80.00
2019-02-20T13:05:20.916Z,79.50
2019-02-20T13:07:49.555Z,79.90
2019-02-20T13:10:18.151Z,80.40
2019-02-20T13:12:46.863Z,79.30
2019-02-20T13:15:15.793Z,79.10
2019-02-20T13:17:44.411Z,78.50
2019-02-20T13:20:13.017Z,78.70
2019-02-20T13:22:41.682Z,76.70
2019-02-20T13:25:10.380Z,76.70
2019-02-20T13:27:40.266Z,76.30
2019-02-20T13:30:09.452Z,75.60
2019-02-20T13:32:38.087Z,76.80
2019-02-20T13:35:06.937Z,76.00
2019-02-20T13:37:35.614Z,76.70
2019-02-20T13:40:04.344Z,78.00
2019-02-20T13:42:33.044Z,75.30
2019-02-20T13:45:01.817Z,75.80
2019-02-20T13:47:30.928Z,77.00
2019-02-20T13:49:59.576Z,76.00
2019-02-20T13:52:28.237Z,75.10
2019-02-20T13:54:58.708Z,75.10
2019-02-20T13:57:27.330Z,74.60
2019-02-20T13:59:55.962Z,73.40
2019-02-20T14:02:24.555Z,75.30
2019-02-20T14:04:53.496Z,75.40
2019-02-20T14:07:22.136Z,74.80
2019-02-20T14:09:50.760Z,74.80
2019-02-20T14:12:20.629Z,75.40
2019-02-20T14:14:49.359Z,72.60
2019-02-20T14:17:26.205Z,72.30
2019-02-20T14:19:48.416Z,72.30
2019-02-20T14:22:20.806Z,71.60
2019-02-20T14:24:49.623Z,72.50
2019-02-20T14:27:18.720Z,72.10
2019-02-20T14:29:47.407Z,70.60
2019-02-20T14:32:16.372Z,70.30
2019-02-20T14:34:45.562Z,70.80
2019-02-20T14:37:15.535Z,70.30
2019-02-20T14:39:44.125Z,71.00
2019-02-20T14:42:13.198Z,71.40
2019-02-20T14:44:41.784Z,71.20
2019-02-20T14:47:10.402Z,70.90
2019-02-20T14:49:39.110Z,71.80
2019-02-20T14:52:07.768Z,71.30
2019-02-20T14:54:36.607Z,70.90
2019-02-20T14:57:05.290Z,70.30
2019-02-20T14:59:53.522Z,70.60
2019-02-20T15:02:22.091Z,70.80
2019-02-20T15:04:50.751Z,68.90
2019-02-20T15:07:38.789Z,69.10
2019-02-20T15:10:07.864Z,68.60
2019-02-20T15:12:36.500Z,69.60
2019-02-20T15:15:10.630Z,68.30
2019-02-20T15:17:35.723Z,68.60
2019-02-20T15:20:04.458Z,68.20
2019-02-20T15:22:33.421Z,67.50
2019-02-20T15:25:06.129Z,68.90
2019-02-20T15:27:34.812Z,68.80
2019-02-20T15:30:04.380Z,69.10
2019-02-20T15:32:33.059Z,70.50
2019-02-20T15:35:03.047Z,70.00
2019-02-20T15:37:32.116Z,68.30
2019-02-20T15:40:00.874Z,68.80
2019-02-20T15:42:29.485Z,68.70
2019-02-20T15:44:58.178Z,68.50
2019-02-20T15:47:26.769Z,69.30
2019-02-20T15:49:55.401Z,69.40
2019-02-20T15:52:24.090Z,69.60
2019-02-20T15:54:53.162Z,69.90
2019-02-20T15:57:21.786Z,70.40
2019-02-20T15:59:50.643Z,69.90
2019-02-20T16:02:19.235Z,70.70
2019-02-20T16:04:47.843Z,71.60
2019-02-20T16:07:16.792Z,72.20
2019-02-20T16:09:48.405Z,72.80
2019-02-20T16:12:20.299Z,73.50
2019-02-20T16:14:48.933Z,73.60
2019-02-20T16:17:17.515Z,73.70
2019-02-20T16:19:46.117Z,74.30
2019-02-20T16:22:14.784Z,74.50
2019-02-20T16:24:43.364Z,74.00
2019-02-20T16:27:12.288Z,74.50
2019-02-20T16:29:40.916Z,74.50
2019-02-20T16:32:09.511Z,74.90
2019-02-20T16:34:41.120Z,75.10
2019-02-20T16:37:09.733Z,75.50
2019-02-20T16:39:38.361Z,76.10
2019-02-20T16:42:07.343Z,76.30
2019-02-20T16:44:35.941Z,76.60
2019-02-20T16:47:05.762Z,76.30
2019-02-20T16:49:53.653Z,76.60
2019-02-20T16:52:22.246Z,76.60
2019-02-20T16:54:51.248Z,76.90
2019-02-20T16:57:19.893Z,76.80
2019-02-20T16:59:48.498Z,76.70
2019-02-20T17:02:19.260Z,77.20
2019-02-20T17:04:47.840Z,77.60
2019-02-20T17:07:19.155Z,77.80
2019-02-20T17:09:48.129Z,78.00
2019-02-20T17:12:17.788Z,78.30
2019-02-20T17:14:46.422Z,78.20
2019-02-20T17:17:16.653Z,77.90
2019-02-20T17:19:45.235Z,78.30
2019-02-20T17:22:13.832Z,78.40
2019-02-20T17:24:42.709Z,78.50
2019-02-20T17:27:11.293Z,78.90
2019-02-20T17:29:39.960Z,79.20
2019-02-20T17:32:08.645Z,79.40
2019-02-20T17:34:37.226Z,79.60
2019-02-20T17:37:05.824Z,79.70
2019-02-20T17:39:34.407Z,79.90
2019-02-20T17:42:03.255Z,80.40
2019-02-20T17:44:31.848Z,80.60
2019-02-20T17:47:00.424Z,81.00
2019-02-20T17:49:29.058Z,81.50
2019-02-20T17:51:57.652Z,81.90
2019-02-20T17:54:26.257Z,82.00
2019-02-20T17:56:55.047Z,82.40
2019-02-20T17:59:23.651Z,82.50
2019-02-20T18:01:52.243Z,82.60
2019-02-20T18:04:20.846Z,83.00
2019-02-20T18:06:49.700Z,83.40
2019-02-20T18:09:18.318Z,84.10
2019-02-20T18:11:46.905Z,85.10
2019-02-20T18:14:15.540Z,84.40
2019-02-20T18:16:44.132Z,84.50
2019-02-20T18:19:12.703Z,84.70
2019-02-20T18:21:41.683Z,84.70
2019-02-20T18:24:10.351Z,85.40
2019-02-20T18:26:38.950Z,85.40
2019-02-20T18:29:26.850Z,85.40
2019-02-20T18:31:55.482Z,85.70
2019-02-20T18:34:24.323Z,85.70
2019-02-20T18:36:52.915Z,85.60
2019-02-20T18:39:21.507Z,85.60
2019-02-20T18:41:50.087Z,85.70
2019-02-20T18:44:18.698Z,86.00
2019-02-20T18:46:47.286Z,86.10
2019-02-20T18:49:20.934Z,86.10
2019-02-20T18:51:49.015Z,86.30
2019-02-20T18:54:17.618Z,86.80
2019-02-20T18:56:46.204Z,86.90
2019-02-20T18:59:15.831Z,87.50
2019-02-20T19:01:44.411Z,87.90
2019-02-20T19:04:13.246Z,88.10
2019-02-20T19:06:41.885Z,87.80
2019-02-20T19:09:17.974Z,88.10
2019-02-20T19:12:08.905Z,88.40
2019-02-20T19:15:04.758Z,88.90
2019-02-20T19:18:04.333Z,89.20
2019-02-20T19:20:57.226Z,88.70
2019-02-20T19:24:41.113Z,89.40
2019-02-20T19:27:34.885Z,88.90
2019-02-20T19:30:44.460Z,89.60
2019-02-20T19:33:36.341Z,89.80
2019-02-20T19:36:29.252Z,89.90
2019-02-20T19:39:27.028Z,89.80
2019-02-20T19:42:36.214Z,89.90
2019-02-20T19:45:39.343Z,90.10
2019-02-20T19:48:52.385Z,90.10
2019-02-20T19:52:11.677Z,90.20
2019-02-20T19:54:45.090Z,90.10
2019-02-20T19:57:39.049Z,90.00
2019-02-20T20:00:22.561Z,90.00
2019-02-20T20:03:13.943Z,90.20
2019-02-20T20:06:26.044Z,90.20
2019-02-20T20:09:16.391Z,90.00
2019-02-20T20:12:35.241Z,90.00
2019-02-20T20:15:22.718Z,89.90
2019-02-20T20:18:41.103Z,89.70
2019-02-20T20:21:22.192Z,90.00
2019-02-20T20:24:26.869Z,90.10
2019-02-20T20:27:22.041Z,90.60
2019-02-20T20:30:40.790Z,90.70
2019-02-20T20:33:40.704Z,90.70
2019-02-20T20:36:40.495Z,91.00
2019-02-20T20:40:11.883Z,91.40
2019-02-20T20:43:04.149Z,91.30
2019-02-20T20:46:13.287Z,91.70
2019-02-20T20:49:13.444Z,91.90
2019-02-20T20:52:18.685Z,91.90
2019-02-20T20:55:10.150Z,91.80
2019-02-20T20:58:09.235Z,91.90
2019-02-20T21:01:11.305Z,91.90
2019-02-20T21:03:54.284Z,91.90
2019-02-20T21:06:40.288Z,91.90
2019-02-20T21:09:28.817Z,92.10
2019-02-20T21:12:31.395Z,92.10
2019-02-20T21:15:20.224Z,92.10
2019-02-20T21:18:25.495Z,92.10
2019-02-20T21:21:03.118Z,92.30
2019-02-20T21:23:58.729Z,92.70
2019-02-20T21:26:55.902Z,92.50
2019-02-20T21:29:52.157Z,92.60
2019-02-20T21:32:45.883Z,92.60
2019-02-20T21:36:03.677Z,92.80
2019-02-20T21:39:25.412Z,93.30
2019-02-20T21:42:09.978Z,92.90
2019-02-20T21:44:56.372Z,92.90
2019-02-20T21:47:57.823Z,93.10
2019-02-20T21:50:42.052Z,93.10
2019-02-20T21:53:56.420Z,93.30
2019-02-20T21:57:02.334Z,93.20
2019-02-20T21:59:46.138Z,93.50
2019-02-20T22:02:53.319Z,93.50
2019-02-20T22:05:41.790Z,93.60
2019-02-20T22:08:23.824Z,93.50
2019-02-20T22:11:17.565Z,93.40
2019-02-20T22:14:16.535Z,93.50
2019-02-20T22:17:17.915Z,93.60
2019-02-20T22:20:23.830Z,93.70
2019-02-20T22:23:21.494Z,93.80
2019-02-20T22:26:17.836Z,93.70
2019-02-20T22:29:31.351Z,93.80
2019-02-20T22:32:40.797Z,93.80
2019-02-20T22:35:59.917Z,93.70
2019-02-20T22:39:02.079Z,93.70
2019-02-20T22:42:07.817Z,93.50
2019-02-20T22:45:22.929Z,93.50
2019-02-20T22:48:26.740Z,93.50
2019-02-20T22:51:21.947Z,93.30
2019-02-20T22:54:03.970Z,93.20
2019-02-20T22:57:04.030Z,93.40
2019-02-20T23:00:19.854Z,93.30
2019-02-20T23:03:19.955Z,93.30
2019-02-20T23:06:17.538Z,93.30
2019-02-20T23:09:33.592Z,93.10
2019-02-20T23:12:17.002Z,93.00
2019-02-20T23:14:56.344Z,93.10
2019-02-20T23:17:27.072Z,93.00
2019-02-20T23:19:55.715Z,93.00
2019-02-20T23:22:24.347Z,93.00
2019-02-20T23:24:52.964Z,92.90
2019-02-20T23:27:21.548Z,93.00
2019-02-20T23:29:50.279Z,92.90
2019-02-20T23:32:18.902Z,92.90
2019-02-20T23:34:47.488Z,92.80
2019-02-20T23:37:16.147Z,92.80
2019-02-20T23:39:44.837Z,92.80
2019-02-20T23:42:13.417Z,92.90
2019-02-20T23:44:42.116Z,92.90
2019-02-20T23:47:11.089Z,92.80
2019-02-20T23:49:39.698Z,92.80
2019-02-20T23:52:08.279Z,92.80
2019-02-20T23:54:37.161Z,92.70
2019-02-20T23:57:05.827Z,92.80
2019-02-20T23:59:34.436Z,92.80
